BXTK1: Spring River at Baxter Springs

                                SHEF ID:       BXTK1     SPRING R NR BAXTER SPRINGS, KS
STATION TYPE:

PRECIP STAGE RIV-FLOW BAT-LOAD
in ft cfs volt
Ccp-Rev Ccp-Rev Ccp-Rev Ccp-Rev
(America/Chicago)
03/08 00:00 0.00 6.85 11289 12.40
03/08 01:00 0.00 6.89 11482 12.36
03/08 03:00 0.00 6.88 11434 12.33
03/08 04:00 0.00 6.86 11337 12.30
03/08 05:00 0.01 6.85 11289 12.25
03/08 06:00 0.00 6.81 11099 12.22
03/08 07:00 0.00 6.81 11099 12.21
03/08 08:00 0.00 6.80 11051 12.21
03/08 09:00 0.00 6.77 10909 13.36
03/08 10:00 0.00 6.73 10722 14.12
03/08 11:00 0.00 6.69 10535 14.33
03/08 12:00 0.00 6.64 10305 14.31
03/08 13:00 0.00 6.55 9897 14.23
03/08 14:00 0.00 6.48 9584 14.14
03/08 15:00 0.00 6.40 9234 14.04
03/08 16:00 0.00 6.32 8889 13.93
03/08 17:00 0.00 6.25 8593 13.83
03/08 18:00 0.00 6.19 8343 13.64
03/08 19:00 0.00 6.13 8096 12.98
03/08 20:00 0.00 6.07 7854 12.53
03/08 21:00 0.00 6.00 7575 12.52
03/08 22:00 0.00 5.96 7418 12.49
03/08 23:00 ---- 5.91 7224 12.46
Data processed at Mon 09Mar2026 04:42 GMT

NOTICE: If you are parsing this page

Please convert to using our Data API. Starting early 2026 we will be migrating to: https://water.usace.army.mil with modern pages rendered in JavaScript. When this migration completes you will no longer be able to scrape this page! CWMSDataAPI (CDA)

Timeseries IDs (TSIDs)

TSIDs used from left to right in the data table
BAXT.Precip-Inc.Total.1Hour.1Hour.Ccp-Rev
BAXT.Stage.Inst.1Hour.0.Ccp-Rev
BAXT.Flow.Inst.1Hour.0.Ccp-Rev
BAXT.Volt-Battery Load.Inst.1Hour.0.Ccp-Rev

                            

All information presented herein is the property of the government of the United States of America and may be revised or deleted at any time without prior notice. Dissemination of this information without the expressed written consent of the Public Affairs Office, Tulsa District U.S. Army Corps of Engineers is strictly prohibited. These data are gathered electronically and, as presented, have NOT undergone any form of quality control. These data are NOT guaranteed to be valid or correct.